Historyczne dane pomiarowe

Dodano dane terminowe – wersja testowa.

Dane z okresu 1951-2019

Wersja bazy: 1.34 [2019-03-16, lista zmian], aktualizacja planowana na 2019-04-15

Dane meteo z obszaru Polski uzyskane na podstawie danych udostępnionych przez Instytut Meteorologii i Gospodarki Wodnej – Państwowy Instytut Badawczy.

 

Wybierz Datę:    

       

TemperaturaWilgotnośćWiatrCiśnienieOpadyŚniegCzas trwania zjawisk
 Stacja t tx tn tng RH VA  wxwx mslp ppp RRR   cm mm wxwxwxwxwxwxwx
1987-08-14 12.4 20.2 4.3- 80.0- 4.0 1.0---- 0.0------------
1987-08-13 12.6 17.6 5.4- 68.5- 4.7 2.0---- 0.0------------
1987-08-12 12.2 17.5 5.8- 71.0- 4.0 3.0---- 0.0------------
1987-08-11 13.8 17.5 10.5- 70.5- 5.7 3.7---- 0.4------------
1987-08-10 15.3 20.0 13.6- 81.5- 5.3 2.7---- 2.5------------
1987-08-09 14.6 23.0 5.0- 64.0- 2.3 2.0---- 0.0------------
1987-08-08 12.8 19.8 6.9- 71.8- 2.3 1.0---- 0.0------------
1987-08-07 9.8 15.8 2.2- 76.0- 3.3 1.3---- 0.0------------
1987-08-06 10.7 15.0 8.4- 79.0- 6.0 1.3---- 1.3------------
1987-08-05 12.2 16.1 8.8- 83.3- 7.3 0.7---- 6.2------------
1987-08-04 13.4 18.0 9.4- 85.5- 6.3 1.0---- 5.2------------
1987-08-03 15.2 20.3 10.8- 75.8- 5.0 1.0---- 0.0------------
1987-08-02 15.0 18.5 12.1- 70.8- 5.3 1.7---- 4.2------------
1987-08-01 14.7 22.1 7.4- 80.0- 5.0 1.7---- 2.0------------
1987-07-31 16.0 21.0 13.5- 76.3- 7.7 1.0---- 3.0------------
1987-07-30 17.4 24.1 10.0- 68.8- 1.7 1.3---- 0.9------------
1987-07-29 13.3 19.3 8.2- 73.8- 5.3 0.7---- 0.0------------
1987-07-28 13.4 17.6 10.3- 81.3- 6.3 0.0---- 4.2------------
1987-07-27 12.8 18.0 7.0- 61.3- 4.0 1.7---- 0.0------------
1987-07-26 13.2 21.4 11.0- 90.5- 7.7 2.7---- 13.9------------
1987-07-25 18.6 24.0 15.4- 79.0- 6.3 0.7---- 1.2------------
1987-07-24 20.3 29.4 15.0- 81.8- 4.3 1.0---- 9.2------------
1987-07-23 21.1 28.0 13.3- 74.0- 3.7 1.3---- 1.2------------
1987-07-22 20.3 25.5 15.0- 74.0- 5.0 3.3---- 0.0------------
1987-07-21 21.2 26.8 13.2- 73.0- 1.3 2.0---- 0.0------------
1987-07-20 22.2 26.6 17.2- 75.8- 4.0 4.0---- 0.0------------
1987-07-19 24.0 31.5 15.2- 72.0- 3.3 1.3---- 0.5------------
1987-07-18 23.0 32.1 14.3- 66.8- 3.3 1.0---- 0.0------------
1987-07-17 22.1 28.9 13.6- 69.0- 4.3 2.3---- 0.0------------
1987-07-16 19.0 27.3 11.0- 73.3- 4.0 0.7---- 0.0------------
1987-07-15 15.8 23.0 7.4- 72.3- 1.7 3.0---- 0.0------------
1987-07-14 17.0 21.0 14.0- 62.0- 2.3 3.0---- 0.0------------
1987-07-13 19.1 26.2 15.0- 75.5- 5.7 1.7---- 0.0------------
1987-07-12 20.2 29.3 9.6- 63.3- 2.3 1.3---- 19.2------------
1987-07-11 16.0 24.5 7.1- 66.3- 1.0 1.3---- 0.0------------
1987-07-10 15.4 19.8 9.3- 68.5- 1.0 2.3---- 0.0------------
1987-07-09 16.8 25.3 11.3- 89.5- 6.0 0.0---- 12.5------------
1987-07-08 20.1 29.4 9.3- 58.3- 0.3 1.7---- 0.0------------
1987-07-07 16.1 26.8 5.8- 60.3- 0.0 0.3---- 0.0------------
1987-07-06 15.3 21.4 10.2- 70.5- 1.3 1.7---- 0.0------------
1987-07-05 13.4 18.4 11.5- 89.0- 7.3 1.7---- 8.3------------
1987-07-04 18.6 22.5 14.0- 80.5- 6.3 0.0---- 1.2------------
1987-07-03 18.3 21.6 15.8- 76.0- 6.3 2.3---- 0.0------------
1987-07-02 19.0 26.5 16.5- 92.0- 5.3 0.7---- 0.0------------
1987-07-01 23.6 31.0 15.4- 74.8- 3.0 0.3---- 1.0------------
1987-06-30 21.9 30.7 14.7- 73.5- 2.7 0.3---- 0.0------------
1987-06-29 20.1 25.1 15.3- 77.8- 1.3 0.7---- 0.0------------
1987-06-28 19.4 25.2 14.4- 73.8- 4.7 2.3---- 0.5------------
1987-06-27 17.9 24.5 15.1- 80.3- 5.3 1.0---- 8.7------------
1987-06-26 14.2 23.4 4.8- 72.5- 1.7 1.3---- 0.0------------
1987-06-25 14.8 17.3 12.2- 78.3- 6.3 1.7---- 0.2------------
1987-06-24 15.2 21.8 10.4- 75.5- 4.3 1.3---- 4.0------------
1987-06-23 16.0 20.2 13.2- 78.0- 6.0 1.3---- 0.0------------
1987-06-22 15.0 21.4 9.8- 76.3- 6.3 2.3---- 0.0------------
1987-06-21 14.8 22.5 6.8- 75.5- 3.0 2.3---- 1.0------------
1987-06-20 13.6 21.5 4.8- 68.3- 2.7 1.7---- 0.0------------
1987-06-19 10.6 17.5 4.8- 72.0- 3.0 1.3---- 0.0------------
1987-06-18 10.4 16.8 3.4- 72.3- 4.3 4.0---- 1.3------------
1987-06-17 9.5 13.4 7.0- 82.8- 7.3 2.0---- 2.2------------
1987-06-16 15.8 23.6 12.0- 63.5- 6.7 7.7---- 0.0------------
503.3 ms

 

Źródłem pochodzenia danych jest Instytut Meteorologii i Gospodarki Wodnej – Państwowy Instytut Badawczy. Dane Instytutu Meteorologii i Gospodarki Wodnej – Państwowego Instytutu Badawczego zostały przetworzone.

Dane źródłowe można odnaleźć na stronie https://dane.imgw.pl